Hovedside
METAR-TAF:

METAR-TAF

Lufthavner :

Stockholm, Sverige

Bromma lufthavn

breddegrad: 59-21N, lengdegrad: 017-57E, høyde over havet: 14 m

Gjeldene værobservasjon

Denne rapporten ble laget for 39 minutter siden, klokken 18:20 UTC
Vind 6 kt fra Nordøst
Temperatur 12°C
Luftfuktighet 100%
Trykk 1024 hPa
Sikt: 4200 m
Brutte skyer i en høyde av 400 ft
lett regn

METAR: ESSB 221820Z 05006KT 4200 -RA BKN004 12/12 Q1024

Tid: 20:59 (18:59 UTC)

Varsel

Denne rapporten ble laget for 1 time og 29 minutter siden, klokken 17:30 UTC
Varsel gyldig fra 22. klokken 18 UTC til 22. klokken 20 UTC
Vind 6 kt fra Nordøst
Sikt: 5000 m
Brutte skyer i en høyde av 600 ft
dis
Midlertidig
fra 22. klokken 18 UTC til 22. klokken 20 UTC
Sikt: 2000 m
Brutte skyer i en høyde av 400 ft
Sannsynlighet 40%
fra 22. klokken 19 UTC til 22. klokken 20 UTC
Brutte skyer i en høyde av 1500 ft

TAF: ESSB 221730Z 2218/2220 04006KT 5000 BR BKN006 TEMPO 2218/2220 2000 BKN004 PROB40 2219/2220 BKN015

Værobservasjoner og værvarsel for over 4000 flyplasser (METAR- og TAF-rapporter).

Tilgjengelige stasjoner er representert av de røde og gule prikkene på kartet.

Hold musepekeren over prikken for å se navnet på stasjonen.

Klikk så for å se værobservasjoner og -varsler.

For å forandre kartet kan du klikke på den grønne knappen med svart kryss for å zoome inn, på den grønne knappen med strek for å zoome ut, eller på de grønne pilene for å se tilstøtende kart.


METAR-TAF: